Time;durP1;ratioP1;P1;durP2;ratioP2;P2;SDS_P1;SDS_P2;PMS_P1;PMS_P2;Temp;Humidity;BMP_temperature;BMP_pressure;BME280_temperature;BME280_humidity;BME280_pressure;Samples;Min_cycle;Max_cycle;Signal;HPM_P1;HPM_P2
2022/07/09 00:02:37;;;;;;;27.30;9.90;;;;;;;13.68;84.33;99510.00;2173477;82;20953;-79
2022/07/09 00:05:37;;;;;;;26.82;10.93;;;;;;;13.73;84.14;99509.61;2173476;82;20937;-79
2022/07/09 00:08:38;;;;;;;15.85;8.55;;;;;;;13.79;84.19;99510.98;2173380;82;21341;-79
2022/07/09 00:11:41;;;;;;;17.23;8.40;;;;;;;13.87;84.07;99514.59;2173200;82;20925;-79
2022/07/09 00:14:41;;;;;;;18.73;8.50;;;;;;;13.93;84.21;99513.33;2173325;82;20953;-80
2022/07/09 00:17:41;;;;;;;19.10;10.25;;;;;;;13.99;84.13;99512.51;2172799;82;21000;-79
2022/07/09 00:20:42;;;;;;;13.70;7.28;;;;;;;14.05;84.21;99510.37;2173323;82;20945;-79
2022/07/09 00:23:42;;;;;;;14.70;7.37;;;;;;;14.10;83.93;99511.28;2173097;82;20976;-79
2022/07/09 00:26:43;;;;;;;12.28;7.30;;;;;;;14.13;83.67;99508.69;2173303;82;20925;-79
2022/07/09 00:29:43;;;;;;;15.60;9.15;;;;;;;14.18;83.68;99514.84;2173100;82;20997;-79
2022/07/09 00:32:43;;;;;;;16.20;9.65;;;;;;;14.20;83.60;99519.25;2173390;82;20957;-79
2022/07/09 00:35:44;;;;;;;13.90;7.33;;;;;;;14.23;83.67;99516.64;2173175;82;20984;-79
2022/07/09 00:38:44;;;;;;;14.25;8.30;;;;;;;14.23;83.60;99516.64;2173267;82;21008;-80
2022/07/09 00:41:45;;;;;;;18.30;9.40;;;;;;;14.21;83.83;99521.00;2173176;82;20960;-79
2022/07/09 00:44:46;;;;;;;27.05;10.10;;;;;;;14.20;83.61;99526.25;2173029;82;20965;-79
2022/07/09 00:47:45;;;;;;;37.20;14.73;;;;;;;14.22;83.84;99520.58;2173014;81;21036;-79
2022/07/09 00:50:46;;;;;;;36.23;14.78;;;;;;;14.26;83.89;99523.67;2173347;82;20976;-80
2022/07/09 00:53:47;;;;;;;37.20;17.62;;;;;;;14.29;83.87;99525.00;2172987;82;21435;-80
2022/07/09 00:56:47;;;;;;;25.30;12.15;;;;;;;14.32;83.92;99521.97;2173268;82;20964;-79
2022/07/09 00:59:47;;;;;;;30.15;12.30;;;;;;;14.38;83.87;99517.20;2173417;82;20956;-79
2022/07/09 01:02:47;;;;;;;16.42;8.33;;;;;;;14.42;83.69;99518.09;2173311;82;20949;-79
2022/07/09 01:05:48;;;;;;;16.52;7.17;;;;;;;14.45;83.74;99520.34;2173132;82;20957;-80
2022/07/09 01:08:48;;;;;;;21.68;8.33;;;;;;;14.45;83.58;99517.72;2173532;82;20937;-80
2022/07/09 01:11:49;;;;;;;23.60;9.78;;;;;;;14.45;83.72;99515.09;2173517;82;20964;-80
2022/07/09 01:14:49;;;;;;;26.02;11.22;;;;;;;14.46;83.72;99522.10;2173366;82;21012;-79
2022/07/09 01:17:51;;;;;;;26.15;9.18;;;;;;;14.45;83.69;99516.41;2173215;82;21036;-80
2022/07/09 01:20:50;;;;;;;30.25;10.40;;;;;;;14.46;83.83;99511.59;2173460;82;20953;-79
2022/07/09 01:23:50;;;;;;;34.45;12.70;;;;;;;14.51;84.04;99511.63;2173041;82;21325;-81
2022/07/09 01:26:51;;;;;;;81.87;23.40;;;;;;;14.50;83.68;99500.23;2173167;82;20937;-79
2022/07/09 01:29:51;;;;;;;79.37;23.83;;;;;;;14.49;83.69;99502.42;2173470;82;21005;-79
2022/07/09 01:32:52;;;;;;;64.25;20.65;;;;;;;14.47;83.73;99494.97;2173250;82;20936;-79
2022/07/09 01:35:52;;;;;;;135.45;37.88;;;;;;;14.46;83.88;99494.52;2173383;82;20921;-79
2022/07/09 01:38:52;;;;;;;99.72;28.50;;;;;;;14.44;84.32;99492.31;2173466;82;20925;-78
2022/07/09 01:41:53;;;;;;;82.90;24.32;;;;;;;14.42;84.29;99490.52;2173327;82;20984;-81
2022/07/09 01:44:54;;;;;;;120.77;33.48;;;;;;;14.40;84.34;99494.88;2172926;82;21024;-80
2022/07/09 01:47:54;;;;;;;117.13;33.33;;;;;;;14.37;84.84;99489.61;2172886;80;21066;-79
2022/07/09 01:50:55;;;;;;;68.62;21.27;;;;;;;14.34;84.77;99487.41;2173478;82;20937;-79
2022/07/09 01:53:56;;;;;;;55.05;19.90;;;;;;;14.31;84.97;99478.19;2173236;82;21344;-79
2022/07/09 01:56:56;;;;;;;92.37;25.27;;;;;;;14.29;84.94;99473.80;2173415;82;20928;-78
2022/07/09 01:59:56;;;;;;;101.22;27.95;;;;;;;14.28;84.98;99475.98;2173436;82;20925;-78
2022/07/09 02:02:56;;;;;;;189.80;45.78;;;;;;;14.26;84.98;99481.66;2172896;82;21439;-78
2022/07/09 02:05:57;;;;;;;138.62;36.48;;;;;;;14.23;85.10;99478.58;2173030;82;20963;-79
2022/07/09 02:08:57;;;;;;;179.50;43.30;;;;;;;14.20;84.92;99477.23;2173330;82;20976;-79
2022/07/09 02:11:57;;;;;;;282.30;67.55;;;;;;;14.18;85.04;99472.41;2172838;82;21332;-79
2022/07/09 02:14:58;;;;;;;204.23;54.60;;;;;;;14.16;85.30;99469.33;2172796;82;20901;-78
2022/07/09 02:17:58;;;;;;;148.82;39.13;;;;;;;14.14;85.28;99469.75;2172945;82;21058;-79
2022/07/09 02:20:59;;;;;;;208.25;50.50;;;;;;;14.12;85.50;99468.42;2172963;82;20952;-79
2022/07/09 02:24:00;;;;;;;107.63;30.57;;;;;;;14.11;85.52;99471.04;2172956;82;20981;-78
2022/07/09 02:27:00;;;;;;;52.48;14.70;;;;;;;14.06;85.91;99464.44;2172904;82;20937;-79
2022/07/09 02:30:01;;;;;;;65.78;18.23;;;;;;;14.01;85.84;99463.09;2173105;82;21320;-78
2022/07/09 02:33:02;;;;;;;190.07;47.15;;;;;;;13.97;85.88;99469.19;2173023;82;20937;-79
2022/07/09 02:36:01;;;;;;;46.83;13.60;;;;;;;13.94;86.15;99467.84;2172983;82;21280;-78
2022/07/09 02:39:02;;;;;;;112.65;28.52;;;;;;;13.93;86.58;99472.66;2172960;82;20929;-78
2022/07/09 02:42:02;;;;;;;152.05;39.03;;;;;;;13.92;86.69;99476.14;2172829;82;21156;-78
2022/07/09 02:45:03;;;;;;;146.15;38.15;;;;;;;13.92;86.61;99472.20;2173239;82;21032;-78
2022/07/09 02:48:03;;;;;;;119.00;45.52;;;;;;;13.92;86.62;99477.89;2184576;81;21055;-79
2022/07/09 02:51:03;;;;;;;87.53;34.70;;;;;;;13.91;86.35;99478.75;2189657;81;20959;-78
2022/07/09 02:54:04;;;;;;;51.95;18.48;;;;;;;13.93;86.71;99481.84;2189749;81;21022;-78
2022/07/09 02:57:04;;;;;;;69.58;22.30;;;;;;;13.94;86.49;99477.03;2189545;81;21351;-78
2022/07/09 03:00:05;;;;;;;62.98;18.55;;;;;;;13.94;86.32;99474.41;2189633;81;20940;-78
2022/07/09 03:03:05;;;;;;;73.60;18.87;;;;;;;13.92;86.54;99476.14;2189485;81;21027;-78
2022/07/09 03:06:08;;;;;;;78.85;19.37;;;;;;;13.92;86.31;99469.58;2189616;81;21280;-78
2022/07/09 03:09:06;;;;;;;113.03;28.55;;;;;;;13.91;86.69;99471.76;2189689;81;20921;-78
2022/07/09 03:12:06;;;;;;;63.68;18.35;;;;;;;13.91;86.59;99466.95;2189799;81;20932;-78
2022/07/09 03:15:07;;;;;;;59.10;17.32;;;;;;;13.87;86.12;99455.55;2189825;81;20964;-78
2022/07/09 03:18:08;;;;;;;105.40;27.55;;;;;;;13.87;86.36;99457.25;2189403;81;21043;-78
2022/07/09 03:21:08;;;;;;;29.25;8.68;;;;;;;13.84;86.19;99459.42;2189649;81;20988;-78
2022/07/09 03:24:09;;;;;;;43.48;11.83;;;;;;;13.84;86.34;99457.23;2189761;81;20944;-79
2022/07/09 03:27:08;;;;;;;64.87;16.95;;;;;;;13.83;86.31;99459.41;2189336;81;21404;-78
2022/07/09 03:30:09;;;;;;;14.07;5.78;;;;;;;13.80;86.40;99457.64;2189757;81;20991;-78
2022/07/09 03:33:09;;;;;;;93.20;23.30;;;;;;;13.77;86.31;99458.92;2189715;81;20988;-82
2022/07/09 03:36:10;;;;;;;37.90;10.72;;;;;;;13.78;86.93;99463.30;2189429;81;21335;-80
2022/07/09 03:39:10;;;;;;;49.48;14.65;;;;;;;13.77;86.71;99466.80;2189290;81;20972;-80
2022/07/09 03:42:10;;;;;;;36.05;9.55;;;;;;;13.78;86.44;99465.92;2189603;81;21050;-80
2022/07/09 03:45:11;;;;;;;34.13;12.15;;;;;;;13.78;86.33;99459.80;2189533;81;21344;-80
2022/07/09 03:48:11;;;;;;;17.23;6.72;;;;;;;13.79;86.26;99453.69;2177608;81;21072;-81
2022/07/09 03:51:11;;;;;;;26.07;11.03;;;;;;;13.79;86.30;99457.63;2172276;82;21005;-81
2022/07/09 03:54:12;;;;;;;23.40;6.33;;;;;;;13.79;86.34;99457.19;2172607;82;20949;-80
2022/07/09 03:57:12;;;;;;;19.98;7.40;;;;;;;13.79;86.19;99453.25;2172527;82;21324;-80
2022/07/09 04:00:13;;;;;;;24.82;7.00;;;;;;;13.79;86.23;99455.88;2172510;82;20964;-81
2022/07/09 04:03:13;;;;;;;9.28;4.45;;;;;;;13.83;86.57;99445.85;2172033;82;21095;-81
2022/07/09 04:06:14;;;;;;;20.50;7.55;;;;;;;13.90;86.17;99445.07;2172531;82;20981;-81
2022/07/09 04:09:14;;;;;;;30.08;9.70;;;;;;;14.48;88.49;99437.63;2172550;82;21019;-80
2022/07/09 04:12:14;;;;;;;19.40;7.85;;;;;;;15.05;84.37;99435.27;2172867;82;21016;-80
2022/07/09 04:15:15;;;;;;;22.20;8.00;;;;;;;15.02;82.81;99433.95;2171918;82;20940;-80
2022/07/09 04:18:15;;;;;;;30.23;9.30;;;;;;;15.06;82.37;99441.84;2171632;82;21423;-81
2022/07/09 04:21:16;;;;;;;21.00;8.20;;;;;;;15.14;82.36;99434.86;2172134;82;21029;-80
2022/07/09 04:24:16;;;;;;;10.30;4.65;;;;;;;15.25;82.06;99435.77;2172211;82;20925;-81
2022/07/09 04:27:16;;;;;;;17.35;6.42;;;;;;;15.23;81.70;99437.95;2172235;82;20973;-79
2022/07/09 04:30:17;;;;;;;25.08;8.60;;;;;;;15.20;81.71;99437.51;2171881;82;21363;-80
2022/07/09 04:33:18;;;;;;;11.78;4.65;;;;;;;15.19;81.63;99435.75;2172371;82;20980;-77
2022/07/09 04:36:18;;;;;;;19.60;7.15;;;;;;;15.18;81.69;99437.94;2172106;82;21321;-79
2022/07/09 04:39:18;;;;;;;38.10;12.68;;;;;;;15.19;81.46;99437.50;2172585;82;21024;-83
2022/07/09 04:42:20;;;;;;;24.35;7.72;;;;;;;15.37;82.39;99439.30;2173103;82;20999;-80
2022/07/09 04:45:19;;;;;;;32.80;11.18;;;;;;;15.98;79.80;99446.88;2172131;82;21012;-81
2022/07/09 04:48:19;;;;;;;18.42;6.62;;;;;;;15.76;78.61;99440.73;2182424;80;21706;-81
2022/07/09 04:51:20;;;;;;;16.12;6.33;;;;;;;15.54;78.72;99443.71;2188438;81;20956;-80
2022/07/09 04:54:20;;;;;;;24.00;8.55;;;;;;;15.39;78.90;99440.18;2188638;81;20963;-80
2022/07/09 04:57:20;;;;;;;17.92;4.83;;;;;;;15.31;79.28;99437.53;2188333;81;20957;-79
2022/07/09 05:00:21;;;;;;;20.30;5.85;;;;;;;15.32;79.30;99441.92;2188864;81;20968;-80
2022/07/09 05:03:21;;;;;;;17.20;7.08;;;;;;;15.34;79.41;99450.69;2189723;81;20955;-80
2022/07/09 05:06:22;;;;;;;27.80;9.48;;;;;;;15.36;79.26;99445.00;2189343;81;21015;-81
2022/07/09 05:09:22;;;;;;;29.90;11.12;;;;;;;15.46;79.08;99444.58;2189327;81;20996;-81
2022/07/09 05:12:22;;;;;;;46.48;13.28;;;;;;;15.55;79.16;99438.89;2189649;81;20979;-80
2022/07/09 05:15:23;;;;;;;27.22;6.50;;;;;;;15.67;78.52;99443.80;2189274;81;20972;-79
2022/07/09 05:18:23;;;;;;;42.38;11.85;;;;;;;15.64;78.07;99443.35;2189197;81;21377;-81
2022/07/09 05:21:25;;;;;;;25.45;8.90;;;;;;;15.64;77.94;99448.61;2189219;81;21023;-80
2022/07/09 05:24:24;;;;;;;34.45;10.50;;;;;;;15.64;78.05;99456.95;2188498;81;21051;-80
2022/07/09 05:27:24;;;;;;;30.77;9.35;;;;;;;15.69;77.71;99449.50;2188136;81;21303;-80
2022/07/09 05:30:25;;;;;;;22.42;4.78;;;;;;;15.81;77.44;99447.31;2188335;81;20936;-80
2022/07/09 05:33:25;;;;;;;22.55;6.33;;;;;;;15.97;77.21;99449.50;2188394;81;20967;-79
2022/07/09 05:36:28;;;;;;;13.50;5.55;;;;;;;16.19;76.86;99445.54;2188347;81;20967;-80
2022/07/09 05:39:26;;;;;;;13.10;4.90;;;;;;;16.35;76.45;99450.34;2188493;81;21355;-80
2022/07/09 05:42:29;;;;;;;25.43;6.70;;;;;;;16.55;76.17;99444.63;2189592;81;20995;-81
2022/07/09 05:45:30;;;;;;;29.60;7.15;;;;;;;16.73;74.24;99446.80;2189178;81;21346;-81
2022/07/09 05:48:30;;;;;;;24.30;7.87;;;;;;;16.76;74.46;99446.34;2177878;81;21071;-80
2022/07/09 05:51:31;;;;;;;25.05;6.95;;;;;;;16.93;74.95;99435.73;2171871;82;20960;-80
2022/07/09 05:54:31;;;;;;;24.80;7.50;;;;;;;17.02;73.99;99433.05;2171639;82;21408;-80
2022/07/09 05:57:32;;;;;;;15.45;5.42;;;;;;;16.99;73.50;99432.19;2171645;82;20984;-80
2022/07/09 06:00:32;;;;;;;19.35;6.17;;;;;;;16.94;73.81;99428.25;2172025;82;21000;-82
2022/07/09 06:03:32;;;;;;;24.27;4.72;;;;;;;17.03;73.88;99433.48;2171533;82;21372;-81
2022/07/09 06:06:33;;;;;;;11.48;4.35;;;;;;;17.10;73.68;99433.89;2171280;82;20905;-79
2022/07/09 06:09:33;;;;;;;13.88;5.05;;;;;;;17.16;72.81;99433.86;2171186;82;21020;-80
2022/07/09 06:12:35;;;;;;;27.02;7.58;;;;;;;17.07;72.06;99435.23;2171302;82;21659;-81
2022/07/09 06:15:34;;;;;;;39.65;9.48;;;;;;;16.93;72.42;99426.95;2169842;82;20996;-80
2022/07/09 06:18:34;;;;;;;20.57;5.80;;;;;;;16.91;72.86;99420.36;2169966;82;20992;-81
2022/07/09 06:21:35;;;;;;;26.17;7.25;;;;;;;17.09;72.74;99419.39;2170851;82;21016;-80
2022/07/09 06:24:35;;;;;;;24.50;6.92;;;;;;;17.28;72.22;99415.77;2172648;82;21020;-80
2022/07/09 06:27:35;;;;;;;65.42;16.50;;;;;;;17.44;71.13;99406.02;2172224;82;20961;-80
2022/07/09 06:30:36;;;;;;;41.50;11.88;;;;;;;17.66;70.18;99408.97;2172031;82;21005;-80
2022/07/09 06:33:36;;;;;;;13.48;4.80;;;;;;;17.82;69.87;99407.08;2172333;82;21268;-81
2022/07/09 06:36:37;;;;;;;20.92;6.08;;;;;;;18.04;69.36;99402.03;2172076;82;20993;-81
2022/07/09 06:39:46;;;;;;;8.70;3.80;;;;;;;18.32;69.51;99399.15;2172234;82;20933;-81
2022/07/09 06:42:46;;;;;;;28.02;9.25;;;;;;;18.62;68.29;99394.88;2173741;82;21387;-80
2022/07/09 06:45:47;;;;;;;15.20;4.70;;;;;;;18.90;67.18;99395.41;2173483;82;20913;-80
2022/07/09 06:48:47;;;;;;;7.22;3.40;;;;;;;19.34;65.28;99395.27;2173564;81;21024;-80
2022/07/09 06:51:47;;;;;;;8.80;3.62;;;;;;;19.92;64.69;99390.39;2173843;82;20961;-81
2022/07/09 06:54:48;;;;;;;6.30;2.77;;;;;;;20.41;62.11;99380.28;2173885;82;21041;-81
2022/07/09 06:57:48;;;;;;;7.05;2.72;;;;;;;20.77;61.50;99382.20;2173780;82;20993;-80
2022/07/09 07:00:49;;;;;;;20.25;5.55;;;;;;;20.83;61.47;99385.20;2173972;82;20992;-81
2022/07/09 07:03:49;;;;;;;11.90;4.40;;;;;;;20.77;61.49;99381.32;2173439;82;21020;-81
2022/07/09 07:06:49;;;;;;;7.60;3.22;;;;;;;20.70;60.08;99381.90;2173820;82;20976;-80
2022/07/09 07:09:50;;;;;;;19.17;5.92;;;;;;;20.57;60.95;99377.75;2173953;82;20980;-81
2022/07/09 07:12:50;;;;;;;9.23;3.45;;;;;;;20.76;60.94;99383.55;2174123;82;20987;-82
2022/07/09 07:15:51;;;;;;;14.98;4.45;;;;;;;20.78;60.05;99389.25;2173663;82;21416;-80
2022/07/09 07:18:51;;;;;;;11.45;4.20;;;;;;;20.78;59.14;99385.27;2173465;82;20981;-80
2022/07/09 07:21:52;;;;;;;8.13;2.75;;;;;;;20.65;58.93;99375.81;2173891;82;20984;-80
2022/07/09 07:24:52;;;;;;;14.58;3.90;;;;;;;20.63;58.31;99381.15;2173195;82;21355;-80
2022/07/09 07:27:52;;;;;;;7.90;3.37;;;;;;;20.85;58.82;99380.28;2172812;82;21339;-80
2022/07/09 07:30:53;;;;;;;14.38;5.60;;;;;;;21.44;57.16;99378.10;2172436;82;21035;-80
2022/07/09 07:33:53;;;;;;;15.78;5.58;;;;;;;21.57;56.63;99373.38;2172844;82;21001;-80
2022/07/09 07:36:54;;;;;;;5.00;2.30;;;;;;;21.92;54.23;99370.73;2173284;82;20984;-80
2022/07/09 07:39:54;;;;;;;5.00;2.65;;;;;;;21.98;54.21;99373.69;2172528;82;21004;-79
2022/07/09 07:42:55;;;;;;;7.05;2.30;;;;;;;22.07;54.28;99369.95;2172166;81;21047;-79
2022/07/09 07:45:55;;;;;;;14.65;5.30;;;;;;;21.85;53.99;99360.30;2172666;82;20980;-80
2022/07/09 07:48:56;;;;;;;8.10;3.22;;;;;;;21.80;53.99;99366.19;2182195;80;21414;-80
2022/07/09 07:51:56;;;;;;;8.20;2.60;;;;;;;21.93;53.13;99360.52;2189086;81;20912;-80
2022/07/09 07:54:56;;;;;;;4.85;2.60;;;;;;;22.11;53.96;99353.87;2188932;81;21003;-79
2022/07/09 07:57:57;;;;;;;2.83;1.80;;;;;;;21.88;53.83;99353.13;2188695;81;20971;-80
2022/07/09 08:00:57;;;;;;;11.43;5.10;;;;;;;21.45;52.17;99352.42;2189029;81;20972;-81
2022/07/09 08:03:58;;;;;;;15.20;5.83;;;;;;;20.91;54.26;99362.03;2189122;81;20940;-80
2022/07/09 08:06:58;;;;;;;17.42;6.55;;;;;;;20.54;55.06;99361.90;2189151;81;21396;-80
2022/07/09 08:09:58;;;;;;;21.93;7.37;;;;;;;20.33;55.94;99360.06;2188771;81;20908;-80
2022/07/09 08:12:59;;;;;;;3.90;2.02;;;;;;;20.26;56.21;99355.78;2188793;81;21366;-80
2022/07/09 08:16:01;;;;;;;4.58;2.33;;;;;;;20.35;56.29;99361.36;2188923;81;20970;-80
2022/07/09 08:19:00;;;;;;;6.37;3.00;;;;;;;20.38;56.82;99347.17;2188478;81;20975;-80
2022/07/09 08:22:00;;;;;;;21.23;6.03;;;;;;;20.58;56.82;99351.65;2188721;81;20988;-80
2022/07/09 08:25:01;;;;;;;22.67;7.72;;;;;;;20.80;57.01;99350.74;2189593;81;21386;-80
2022/07/09 08:28:01;;;;;;;29.65;9.35;;;;;;;21.05;56.44;99347.13;2189422;81;20932;-81
2022/07/09 08:31:01;;;;;;;19.27;7.42;;;;;;;21.09;54.39;99344.38;2188680;81;20933;-79
2022/07/09 08:34:02;;;;;;;8.23;2.67;;;;;;;21.16;55.62;99340.67;2189184;81;20963;-80
2022/07/09 08:37:02;;;;;;;3.05;1.85;;;;;;;21.51;55.37;99340.31;2189060;81;20912;-78
2022/07/09 08:40:03;;;;;;;4.37;2.42;;;;;;;22.01;54.19;99333.73;2188289;81;20940;-79
2022/07/09 08:43:04;;;;;;;4.55;2.27;;;;;;;22.59;53.16;99329.98;2188216;81;21007;-80
2022/07/09 08:46:04;;;;;;;5.33;2.20;;;;;;;23.18;51.46;99320.20;2188849;81;20972;-80
2022/07/09 08:49:04;;;;;;;87.55;5.80;;;;;;;23.72;51.19;99322.05;2188750;81;21031;-79
2022/07/09 08:52:04;;;;;;;3.62;2.00;;;;;;;24.33;50.64;99315.95;2188917;81;20984;-82
2022/07/09 08:55:07;;;;;;;4.80;2.10;;;;;;;24.12;48.44;99316.20;2188903;81;20897;-82
2022/07/09 08:58:05;;;;;;;6.37;2.00;;;;;;;23.60;49.42;99318.00;2189163;81;21342;-81
2022/07/09 09:01:06;;;;;;;12.63;4.78;;;;;;;23.18;49.89;99324.20;2189687;81;20969;-80
2022/07/09 09:04:06;;;;;;;16.55;2.50;;;;;;;22.75;49.78;99320.63;2189468;81;21027;-80
2022/07/09 09:07:06;;;;;;;2.55;1.70;;;;;;;22.22;50.31;99323.88;2189226;81;21399;-78
2022/07/09 09:10:07;;;;;;;18.32;4.90;;;;;;;22.20;51.44;99312.41;2188406;81;21287;-80
2022/07/09 09:13:07;;;;;;;10.70;3.85;;;;;;;22.33;51.88;99318.72;2188645;81;20948;-79
2022/07/09 09:16:08;;;;;;;6.78;2.92;;;;;;;22.32;51.83;99312.53;2189395;81;20995;-80
2022/07/09 09:19:08;;;;;;;7.40;3.47;;;;;;;22.12;52.21;99309.56;2188614;81;21762;-80
2022/07/09 09:22:09;;;;;;;4.10;2.00;;;;;;;22.04;51.75;99304.91;2188887;81;21012;-79
2022/07/09 09:25:09;;;;;;;8.73;4.53;;;;;;;22.00;51.20;99298.77;2188795;81;20976;-79
2022/07/09 09:28:12;;;;;;;8.33;3.90;;;;;;;22.18;51.29;99303.61;2188550;81;20935;-81
2022/07/09 09:31:10;;;;;;;4.92;2.00;;;;;;;22.33;51.46;99293.45;2187895;81;20908;-81
2022/07/09 09:34:10;;;;;;;3.37;1.77;;;;;;;22.86;50.44;99294.13;2188409;81;20956;-80
2022/07/09 09:37:11;;;;;;;4.62;2.00;;;;;;;23.20;49.86;99290.41;2188433;81;20968;-81
2022/07/09 09:40:11;;;;;;;6.22;2.02;;;;;;;23.43;49.00;99285.22;2189059;81;20972;-80
2022/07/09 09:43:11;;;;;;;3.17;1.98;;;;;;;23.90;48.07;99277.42;2189708;81;21442;-79
2022/07/09 09:46:12;;;;;;;3.52;1.90;;;;;;;24.20;47.08;99267.91;2188836;81;20968;-80
2022/07/09 09:49:14;;;;;;;22.32;18.45;;;;;;;24.19;45.80;99256.38;2188803;81;21007;-78
2022/07/09 09:52:12;;;;;;;6.50;2.87;;;;;;;24.11;45.75;99253.98;2188461;81;21690;-80
2022/07/09 09:55:13;;;;;;;3.83;1.80;;;;;;;24.28;46.12;99257.43;2188047;81;20940;-80
2022/07/09 09:58:13;;;;;;;3.27;2.00;;;;;;;24.36;45.96;99246.47;2188402;81;20944;-80
2022/07/09 10:01:14;;;;;;;8.30;4.60;;;;;;;24.49;46.17;99244.20;2187993;81;21732;-80
2022/07/09 10:04:18;;;;;;;4.35;2.62;;;;;;;24.60;46.46;99247.33;2187628;81;20940;-80
2022/07/09 10:07:18;;;;;;;;;;;;;;;24.56;46.09;99238.58;2189973;81;20944;-80
2022/07/09 10:10:18;;;;;;;15.58;7.78;;;;;;;24.68;46.03;99235.42;2188048;81;20124;-79
2022/07/09 10:13:18;;;;;;;7.62;2.60;;;;;;;24.80;45.47;99239.87;2189278;81;20905;-80
2022/07/09 10:16:19;;;;;;;7.35;4.15;;;;;;;24.95;43.40;99240.59;2188726;81;21416;-79
2022/07/09 10:19:19;;;;;;;7.55;2.92;;;;;;;24.76;43.90;99231.13;2188453;81;21019;-79
2022/07/09 10:22:20;;;;;;;5.70;3.20;;;;;;;24.19;45.11;99227.03;2188785;81;21007;-80
2022/07/09 10:25:20;;;;;;;8.38;2.87;;;;;;;23.64;46.53;99234.36;2187787;81;21342;-79
2022/07/09 10:28:20;;;;;;;6.67;2.77;;;;;;;23.19;47.91;99226.95;2187634;81;20927;-79
2022/07/09 10:31:21;;;;;;;6.50;2.87;;;;;;;22.85;48.69;99231.17;2187576;81;20960;-79
2022/07/09 10:34:21;;;;;;;5.80;2.80;;;;;;;22.70;49.66;99233.41;2187675;81;20932;-79
2022/07/09 10:37:22;;;;;;;5.78;2.72;;;;;;;22.47;49.81;99228.76;2187087;81;20980;-80
2022/07/09 10:40:22;;;;;;;6.80;3.40;;;;;;;22.35;49.96;99217.16;2187721;81;20976;-79
2022/07/09 10:43:22;;;;;;;7.95;2.70;;;;;;;22.54;50.45;99216.59;2188068;81;20920;-79
2022/07/09 10:46:23;;;;;;;8.33;4.78;;;;;;;22.70;49.32;99228.95;2187857;81;21315;-79
2022/07/09 10:49:23;;;;;;;15.40;7.10;;;;;;;22.56;48.58;99221.86;2187153;81;21066;-80
2022/07/09 10:52:24;;;;;;;11.80;5.20;;;;;;;22.48;48.76;99214.55;2188194;81;21027;-80
2022/07/09 10:55:24;;;;;;;13.45;6.65;;;;;;;22.49;49.41;99210.96;2187684;81;21296;-80
2022/07/09 10:58:25;;;;;;;15.20;6.12;;;;;;;22.66;49.25;99203.82;2188354;81;21011;-80
2022/07/09 11:01:25;;;;;;;14.45;5.15;;;;;;;22.60;48.61;99202.23;2187786;81;21003;-80
2022/07/09 11:04:25;;;;;;;19.37;9.30;;;;;;;23.06;47.47;99198.98;2187986;81;20964;-80
2022/07/09 11:07:27;;;;;;;3.80;2.72;;;;;;;23.42;46.28;99190.24;2187829;81;20955;-80
2022/07/09 11:10:27;;;;;;;6.92;3.08;;;;;;;23.67;46.53;99185.41;2188806;81;20944;-80
2022/07/09 11:13:28;;;;;;;3.20;2.30;;;;;;;23.63;44.97;99183.32;2189055;81;21000;-81
2022/07/09 11:16:27;;;;;;;3.85;2.27;;;;;;;24.04;46.23;99171.14;2189155;81;20916;-81
2022/07/09 11:19:27;;;;;;;4.80;2.30;;;;;;;24.74;46.52;99175.59;2188858;81;21082;-81
2022/07/09 11:22:28;;;;;;;10.63;5.05;;;;;;;25.09;44.65;99179.52;2189267;81;20964;-79
2022/07/09 11:25:28;;;;;;;3.05;1.90;;;;;;;25.06;44.61;99167.63;2189192;81;20964;-79
2022/07/09 11:28:29;;;;;;;5.58;2.00;;;;;;;25.04;44.62;99169.48;2189767;81;21304;-80
2022/07/09 11:31:30;;;;;;;6.03;1.90;;;;;;;25.09;44.36;99162.16;2189640;81;21043;-80
2022/07/09 11:34:30;;;;;;;4.30;1.90;;;;;;;24.69;43.98;99154.42;2189711;81;20960;-80
2022/07/09 11:37:31;;;;;;;8.30;4.53;;;;;;;24.28;45.05;99158.73;2189664;81;20952;-81
2022/07/09 11:40:31;;;;;;;10.13;4.53;;;;;;;23.89;45.54;99162.84;2189769;81;20963;-81
2022/07/09 11:43:32;;;;;;;11.60;5.05;;;;;;;23.30;45.02;99185.77;2190138;81;21011;-80
2022/07/09 11:46:32;;;;;;;9.03;4.00;;;;;;;22.88;45.53;99172.52;2189832;81;20976;-80
2022/07/09 11:49:32;;;;;;;12.60;2.90;;;;;;;22.64;45.55;99163.96;2189326;80;21067;-81
2022/07/09 11:52:33;;;;;;;7.97;3.87;;;;;;;22.67;46.30;99162.53;2187902;81;20965;-79
2022/07/09 11:55:35;;;;;;;15.65;6.47;;;;;;;22.74;46.82;99163.20;2188243;81;20968;-79
2022/07/09 11:58:34;;;;;;;11.78;6.08;;;;;;;22.73;47.15;99165.00;2188711;81;21343;-79
2022/07/09 12:01:34;;;;;;;15.20;6.47;;;;;;;22.76;46.51;99158.70;2188712;81;21040;-79
2022/07/09 12:04:34;;;;;;;7.97;4.45;;;;;;;23.05;45.73;99159.97;2188734;81;20985;-79
2022/07/09 12:07:35;;;;;;;6.62;2.22;;;;;;;23.45;44.16;99149.30;2188574;81;21366;-78
2022/07/09 12:10:35;;;;;;;4.55;3.22;;;;;;;23.94;43.93;99139.08;2188569;81;20943;-79
2022/07/09 12:13:36;;;;;;;3.67;2.30;;;;;;;24.36;43.24;99145.09;2188662;81;20999;-79
2022/07/09 12:16:36;;;;;;;5.42;3.17;;;;;;;24.84;42.87;99136.91;2187940;81;21580;-78
2022/07/09 12:19:36;;;;;;;6.95;3.77;;;;;;;24.84;40.98;99130.23;2187794;81;20999;-78
2022/07/09 12:22:37;;;;;;;10.18;4.45;;;;;;;24.69;41.99;99123.72;2188185;81;20968;-78
2022/07/09 12:25:37;;;;;;;10.40;5.45;;;;;;;24.54;41.94;99128.81;2187921;81;20928;-79
2022/07/09 12:28:38;;;;;;;6.12;3.47;;;;;;;24.24;42.04;99126.84;2187617;81;21376;-78
2022/07/09 12:31:38;;;;;;;12.40;2.20;;;;;;;24.34;42.16;99122.94;2187378;81;20948;-79
2022/07/09 12:34:38;;;;;;;5.05;2.70;;;;;;;24.37;40.50;99117.48;2187897;81;21031;-79
2022/07/09 12:37:39;;;;;;;11.78;5.50;;;;;;;24.66;42.16;99117.17;2188336;81;20932;-79
2022/07/09 12:40:39;;;;;;;4.47;2.05;;;;;;;25.03;40.82;99102.31;2188559;81;20920;-79
2022/07/09 12:43:40;;;;;;;36.53;3.62;;;;;;;24.66;40.70;99121.64;2188509;81;20964;-79
2022/07/09 12:46:41;;;;;;;10.30;3.12;;;;;;;24.25;41.34;99113.91;2188548;81;21007;-79
2022/07/09 12:49:41;;;;;;;11.22;4.65;;;;;;;24.12;42.00;99110.38;2180949;80;21059;-78
2022/07/09 12:52:41;;;;;;;8.28;3.92;;;;;;;24.32;41.09;99110.13;2172594;82;21017;-78
2022/07/09 12:55:42;;;;;;;9.08;6.60;;;;;;;24.54;39.69;99104.34;2172931;82;20980;-79
2022/07/09 12:58:42;;;;;;;5.25;2.77;;;;;;;24.84;40.11;99093.32;2172352;82;21004;-78
2022/07/09 13:01:42;;;;;;;4.33;2.10;;;;;;;25.15;39.17;99103.63;2172937;82;20944;-80
2022/07/09 13:04:43;;;;;;;83.30;6.67;;;;;;;25.12;39.54;99095.25;2173072;82;20981;-80
2022/07/09 13:07:43;;;;;;;22.93;2.67;;;;;;;25.02;36.71;99095.23;2172981;82;21355;-79
2022/07/09 13:10:43;;;;;;;3.45;1.60;;;;;;;25.07;34.81;99085.23;2173138;82;21051;-79
2022/07/09 13:13:44;;;;;;;5.65;2.50;;;;;;;25.12;34.49;99081.89;2172996;82;20945;-79
2022/07/09 13:16:44;;;;;;;5.28;2.67;;;;;;;25.18;35.31;99077.65;2172961;82;21344;-80
2022/07/09 13:19:45;;;;;;;3.90;2.20;;;;;;;25.08;35.58;99079.81;2173149;82;20991;-79
2022/07/09 13:22:45;;;;;;;4.30;2.50;;;;;;;24.91;36.30;99078.77;2172815;82;20961;-80
2022/07/09 13:25:45;;;;;;;11.97;6.20;;;;;;;24.90;37.03;99106.41;2173193;82;20973;-79
2022/07/09 13:28:46;;;;;;;3.27;1.52;;;;;;;24.91;37.02;99084.12;2173038;82;20944;-79
2022/07/09 13:31:46;;;;;;;8.78;5.30;;;;;;;24.80;36.35;99079.23;2173078;82;20996;-79
2022/07/09 13:34:47;;;;;;;4.08;2.60;;;;;;;24.98;36.85;99067.80;2172937;82;21000;-80
2022/07/09 13:37:47;;;;;;;3.77;2.50;;;;;;;25.53;37.31;99064.52;2172959;82;20961;-80
2022/07/09 13:40:47;;;;;;;2.60;2.40;;;;;;;25.58;34.95;99061.17;2172858;82;21364;-80
2022/07/09 13:43:48;;;;;;;5.67;2.12;;;;;;;25.17;35.27;99062.56;2172757;82;20984;-79
2022/07/09 13:46:48;;;;;;;6.37;3.65;;;;;;;25.09;36.38;99066.00;2172906;82;20952;-79
2022/07/09 13:49:49;;;;;;;7.17;4.47;;;;;;;25.03;34.26;99055.11;2179243;81;21371;-80
2022/07/09 13:52:49;;;;;;;5.20;2.22;;;;;;;24.91;34.79;99055.61;2189252;81;21000;-79
2022/07/09 13:55:49;;;;;;;4.80;2.70;;;;;;;24.87;34.67;99057.14;2189474;81;20956;-80
2022/07/09 13:58:50;;;;;;;8.40;4.47;;;;;;;24.75;34.02;99055.40;2189257;81;20968;-79
2022/07/09 14:01:50;;;;;;;3.52;1.40;;;;;;;24.88;31.97;99062.89;2189489;81;21331;-79